Fairview, Canada
Current Conditions -  °F | °C
As of 10:00 AM on Saturday 25 Oct 2014 (Local Time) from CYPE Reporting Station
Overcast Overcast  
Wind Chill: 27°   Ceiling: 25000
Heat Index: 27°   Visibility: 15mi
Dew Point: 25°   Wind: 2mph
Humidity: 93%   Direction: 80°E
Pressure: 29.92"   Gusts: NA
Location:  56.07°N, 118.38°W
Report Text: CYPE 251600Z 08002KT 15SM OVC250 M03/M04 A2992 RMK CI8 FROIN SLP161
Loading
Personal Weather Stations






























Interactive Weather Map
Tropical Storm Tracking
New forecast layout! Learn more

10-Day Weather Forecast

Advertisements
Track Severe Weather on mobile